Laughlin Air Force Base
KDLF : now visible

Airfield :











YOU CAN JOIN US ON...

 
LOGIN :

Register | Disclaimer

   EN    FR    IT 

 









Legend :    VFR   Marginal VFR   IFR   Intensive IFR   Very Intensive IFR
Visi :
Ceiling :
>= 8 km
>= 3000ft
5 to 8 km
1000 to 3000 ft
1500m to 5 km
500 to 1000 ft
800 to 1500m
200 to 500 ft
< 800m
< 200 ft
Symbols :   Thunderstorms  Fog  Heavy snow  Heavy precipitations  Wind > 20 kt






- Airport Elevation : 1082 ft


KDLF - Laughlin Air Force Base

CURRENT METAR :
  • 031256Z AUTO 01003KT 6SM BR BKN037 OVC080 25/23 A3003 RMK AO2 SLP158 T02450233 $

EXPIRED METARs :
  • 031156Z AUTO 00000KT 10SM OVC150 24/23 A3002 RMK AO2 SLP154 70054 T02370233 10242 20235 53004 $
  • 031056Z AUTO 03005KT 10SM OVC120 24/23 A3001 RMK AO2 SLP150 T02360232 $

TAF AMD TAF KDLF
Valid from the 03 at 13:00 until the 04 at 17:00 UTC


031314Z 0313/0417 01006KT 9999 SCT030 BKN080 BKN120 QNH3001INS
BECMG 0315/0316 01006KT 9999 SCT120 BKN250 QNH2996INS
BECMG 0410/0411 VRB06KT 9999 VCSH FEW020 SCT050 BKN120 QNH2998INS TX33/0321Z TN25/0313Z
KZHU FIR / North America



MET'MAP, your aeronautical weather chart ! - Copyright ORBIFLY December 2007 - Disclaimer

ORBIFLY MET'MAP TEAM :

Programming & Development : Alexandra Zaïnal
Concept & original design : Baudouin d'Aumeries
Assistance for programming : Marc-Olivier Méhu
Technical & hardware support : Manuel Goepfert

Contact : metmap@orbifly.com




SOURCES & CREDITS :

   NOAA       Earth
Advisory